Historyczne dane pomiarowe

Dodano dane terminowe – wersja testowa.

Dane z okresu 1951-2019

Wersja bazy: 1.34 [2019-03-16, lista zmian], aktualizacja planowana na 2019-04-15

Dane meteo z obszaru Polski uzyskane na podstawie danych udostępnionych przez Instytut Meteorologii i Gospodarki Wodnej – Państwowy Instytut Badawczy.

 

Wybierz Datę:    

       

TemperaturaWilgotnośćWiatrCiśnienieOpadyŚniegCzas trwania zjawisk
 Stacja t tx tn tng RH VA  wxwx mslp ppp RRR   cm mm wxwxwxwxwxwxwx
1999-08-14 15.8 22.0 10.3 6.6 73.5- 3.7 1.0---- 0.0------------
1999-08-13 15.9 21.2 12.4 10.6 68.8- 2.3 3.7---- 0.1------------
1999-08-12 15.6 22.2 9.7 6.4 76.0- 2.7 3.0---- 0.4------------
1999-08-11 19.6 25.1 13.7 10.2 69.8- 2.3 3.0---- 0.2------------
1999-08-10 21.4 29.3 13.9 10.4 67.0- 3.7 1.0---- 0.0------------
1999-08-09 22.7 29.3 15.6 13.9 59.3- 3.3 2.7---- 0.0------------
1999-08-08 21.2 29.3 12.0 10.2 72.3- 4.0 0.7---- 0.0------------
1999-08-07 20.7 28.7 12.4 9.2 69.0- 1.7 0.0---- 1.6------------
1999-08-06 21.2 29.7 13.9 9.6 60.0- 1.3 0.3---- 0.4------------
1999-08-05 19.2 28.7 10.1 6.6 63.3- 1.3 0.7---- 0.0------------
1999-08-04 19.8 28.1 12.0 7.5 51.0- 1.3 1.0---- 0.0------------
1999-08-03 19.8 27.6 12.6 7.5 57.0- 1.0 1.0---- 0.0------------
1999-08-02 19.8 27.2 11.8 7.1 49.8- 1.3 0.7---- 0.1------------
1999-08-01 19.9 26.8 13.0 6.9 54.0- 1.7 1.3---- 0.0------------
1999-07-31 20.4 27.8 11.2 8.1 49.8- 1.3 2.0---- 0.0------------
1999-07-30 19.7 27.2 11.1 6.6 61.8- 1.3 2.3---- 0.0------------
1999-07-29 19.3 26.3 11.8 7.7 63.8- 1.3 1.0---- 0.0------------
1999-07-28 18.9 25.6 11.4 7.6 59.3- 2.3 1.7---- 0.0------------
1999-07-27 17.4 22.6 12.0 8.6 68.3- 3.0 2.3---- 0.0------------
1999-07-26 21.5 28.7 17.2 15.5 79.8- 3.0 2.0---- 0.4------------
1999-07-25 18.9 26.0 11.2 8.3 75.5- 4.7 2.0---- 0.0------------
1999-07-24 17.4 23.0 11.6 10.8 71.8- 2.3 2.0---- 0.0------------
1999-07-23 17.8 22.8 11.6 8.7 71.8- 2.7 1.0---- 0.0------------
1999-07-22 18.2 23.6 13.9 10.4 77.0- 2.7 1.7---- 0.0------------
1999-07-21 22.8 29.9 17.3 14.5 69.3- 2.7 4.0---- 3.5------------
1999-07-20 23.2 31.7 14.7 11.7 58.0- 1.3 1.0---- 0.0------------
1999-07-19 22.3 29.1 13.5 10.6 58.3- 1.7 1.0---- 0.2------------
1999-07-18 19.8 27.0 12.5 9.2 68.8- 4.0 0.7---- 0.0------------
1999-07-17 17.8 24.8 9.6 6.9 69.0- 3.3 0.7---- 0.0------------
1999-07-16 16.4 22.0 9.9 7.1 79.8- 3.3 0.3---- 1.8------------
1999-07-15 17.6 22.6 15.1 14.1 86.5- 5.0 2.7---- 0.0------------
1999-07-14 21.0 28.1 16.3 14.1 83.3- 4.0 1.7---- 32.5------------
1999-07-13 21.7 28.7 17.7 15.6 71.8- 3.7 0.7---- 2.8------------
1999-07-12 22.2 29.1 14.5 10.7 60.3- 2.0 1.7---- 0.0------------
1999-07-11 21.3 27.6 13.5 10.8 53.3- 0.7 1.7---- 0.0------------
1999-07-10 20.5 25.8 15.1 13.1 57.5- 1.3 2.3---- 0.0------------
1999-07-09 19.3 25.2 14.3 12.9 67.0- 1.7 2.3---- 0.0------------
1999-07-08 17.4 20.2 15.1 13.6 95.8- 7.0 1.7---- 8.7------------
1999-07-07 19.2 23.1 16.6 15.7 85.0- 5.3 1.0---- 0.0------------
1999-07-06 23.7 31.7 17.7 15.3 68.5- 2.3 2.0---- 45.2------------
1999-07-05 25.6 33.1 17.7 14.9 57.3- 2.0 1.3---- 0.0------------
1999-07-04 23.6 31.2 15.3 11.7 66.0- 1.3 2.0---- 0.0------------
1999-07-03 20.4 26.1 13.0 10.2 75.3- 1.7 1.0---- 0.0------------
1999-07-02 18.8 23.0 15.2 13.7 85.3- 5.3 0.3---- 0.0------------
1999-07-01 18.9 26.6 13.0 10.2 77.5- 2.7 0.3---- 2.5------------
1999-06-30 19.9 25.0 12.5 10.8 67.0- 1.3 0.3---- 0.0------------
1999-06-29 19.0 23.4 14.3 12.7 73.0- 1.7 0.7---- 0.0------------
1999-06-28 20.2 28.0 14.9 12.6 73.0- 3.3 1.7---- 24.8------------
1999-06-27 20.2 26.3 13.9 11.8 61.3- 1.7 3.7---- 0.0------------
1999-06-26 14.3 19.8 7.5 5.8 79.0- 2.7 0.3---- 0.0------------
1999-06-25 13.4 17.8 8.2 4.8 86.3- 3.7 0.7---- 4.9------------
1999-06-24 13.0 19.8 5.0 2.0 73.0- 3.3 0.7---- 0.0------------
1999-06-23 11.2 13.4 8.2 7.6 95.0- 8.0 2.0---- 6.8------------
1999-06-22 11.2 14.8 8.6 8.1100.0- 8.0 3.3---- 26.0------------
1999-06-21 18.1 23.0 14.5 14.4 78.5- 3.7 3.3---- 3.5------------
1999-06-20 19.0 24.0 14.4 12.7 78.0- 3.3 1.0---- 0.0------------
1999-06-19 19.3 25.6 13.9 12.6 79.3- 3.0 1.0---- 0.0------------
1999-06-18 20.0 24.1 15.8 14.1 66.8- 3.0 2.0---- 0.0------------
1999-06-17 18.9 23.1 14.9 14.1 83.0- 4.0 0.7---- 0.0------------
1999-06-16 18.3 21.8 14.9 14.5 86.3- 6.0 1.0---- 0.0------------
1234.7 ms

 

Źródłem pochodzenia danych jest Instytut Meteorologii i Gospodarki Wodnej – Państwowy Instytut Badawczy. Dane Instytutu Meteorologii i Gospodarki Wodnej – Państwowego Instytutu Badawczego zostały przetworzone.

Dane źródłowe można odnaleźć na stronie https://dane.imgw.pl